createdAt,value
2023-01-22T00:00:33.123Z,101311.38
2023-01-22T00:01:34.612Z,101313.06
2023-01-22T00:02:36.498Z,101316.91
2023-01-22T00:03:38.179Z,101316.91
2023-01-22T00:04:39.795Z,101322.41
2023-01-22T00:05:41.340Z,101276.34
2023-01-22T00:06:42.912Z,101317.75
2023-01-22T00:07:44.446Z,101319.47
2023-01-22T00:08:46.820Z,101307.56
2023-01-22T00:09:48.390Z,101314.78
2023-01-22T00:10:50.884Z,101311.16
2023-01-22T00:11:52.440Z,101317.56
2023-01-22T00:12:53.951Z,101309.25
2023-01-22T00:13:55.519Z,101314.78
2023-01-22T00:14:57.049Z,101305.84
2023-01-22T00:15:58.861Z,101316.47
2023-01-22T00:17:00.448Z,101309.88
2023-01-22T00:18:01.962Z,101312.44
2023-01-22T00:19:03.453Z,101305.84
2023-01-22T00:20:06.089Z,101307.75
2023-01-22T00:21:07.754Z,101312.44
2023-01-22T00:22:11.536Z,101311.38
2023-01-22T00:23:13.043Z,101315.19
2023-01-22T00:24:14.713Z,101306.69
2023-01-22T00:25:16.256Z,101310.31
2023-01-22T00:26:17.831Z,101304.16
2023-01-22T00:27:20.391Z,101302.44
2023-01-22T00:28:22.517Z,101307.97
2023-01-22T00:29:24.229Z,101300.31
2023-01-22T00:30:26.156Z,101304.16
2023-01-22T00:31:27.825Z,101299.47
2023-01-22T00:32:29.353Z,101304.78
2023-01-22T00:33:31.038Z,101301.19
2023-01-22T00:34:32.551Z,101309.25
2023-01-22T00:35:34.206Z,101303.75
2023-01-22T00:36:35.726Z,101308.19
2023-01-22T00:37:37.330Z,101302.69
2023-01-22T00:38:38.987Z,101303.75
2023-01-22T00:39:42.115Z,101301.63
2023-01-22T00:40:43.755Z,101298.84
2023-01-22T00:41:45.268Z,101307.16
2023-01-22T00:42:46.770Z,101307.16
2023-01-22T00:43:49.585Z,101301.63
2023-01-22T00:44:52.259Z,101297.81
2023-01-22T00:45:53.813Z,101295.03
2023-01-22T00:46:55.300Z,101302.69
2023-01-22T00:47:56.791Z,101293.34
2023-01-22T00:48:58.411Z,101295.25
2023-01-22T00:49:59.993Z,101296.09
2023-01-22T00:51:01.610Z,101283.34
2023-01-22T00:52:03.155Z,101287.81
2023-01-22T00:53:04.648Z,101295.25
2023-01-22T00:54:06.176Z,101285.03
2023-01-22T00:55:07.881Z,101284.84
2023-01-22T00:56:09.713Z,101288.44
2023-01-22T00:57:11.330Z,101281.22
2023-01-22T00:58:12.838Z,101274.66
2023-01-22T00:59:14.441Z,101285.03
2023-01-22T01:00:18.283Z,101287.59
2023-01-22T01:01:21.335Z,101289.31
2023-01-22T01:02:22.954Z,101282.94
2023-01-22T01:03:27.272Z,101282.06
2023-01-22T01:04:28.769Z,101282.06
2023-01-22T01:05:30.301Z,101280.38
2023-01-22T01:06:31.833Z,101282.28
2023-01-22T01:07:33.376Z,101288.66
2023-01-22T01:08:35.608Z,101263.50
2023-01-22T01:09:37.147Z,101284.84
2023-01-22T01:10:38.653Z,101284.00
2023-01-22T01:11:40.237Z,101287.41
2023-01-22T01:12:41.770Z,101284.63
2023-01-22T01:13:43.454Z,101282.56
2023-01-22T01:14:44.946Z,101298.06
2023-01-22T01:15:46.677Z,101289.78
2023-01-22T01:16:49.257Z,101292.75
2023-01-22T01:17:50.773Z,101287.22
2023-01-22T01:18:52.964Z,101281.50
2023-01-22T01:19:54.496Z,101283.41
2023-01-22T01:20:56.280Z,101282.94
2023-01-22T01:21:57.808Z,101290.16
2023-01-22T01:22:59.484Z,101280.84
2023-01-22T01:24:00.988Z,101284.25
2023-01-22T01:25:02.564Z,101280.44
2023-01-22T01:26:08.651Z,101284.91
2023-01-22T01:27:10.117Z,101281.09
2023-01-22T01:28:11.653Z,101280.88
2023-01-22T01:29:13.161Z,101287.25
2023-01-22T01:30:15.216Z,101281.94
2023-01-22T01:31:16.986Z,101279.16
2023-01-22T01:32:18.604Z,101283.44
2023-01-22T01:33:20.089Z,101285.13
2023-01-22T01:34:21.727Z,101280.47
2023-01-22T01:35:24.339Z,101280.88
2023-01-22T01:36:48.617Z,101284.03
2023-01-22T01:37:47.449Z,101281.09
2023-01-22T01:38:49.037Z,101279.16
2023-01-22T01:39:54.556Z,101278.97
2023-01-22T01:40:56.050Z,101278.09
2023-01-22T01:41:57.642Z,101283.44
2023-01-22T01:42:59.145Z,101281.72
2023-01-22T01:44:14.061Z,101285.13
2023-01-22T01:45:19.174Z,101285.13
2023-01-22T01:46:23.052Z,101278.56
2023-01-22T01:47:30.665Z,101280.88
2023-01-22T01:48:38.982Z,101281.72
2023-01-22T01:49:50.575Z,101280.66
2023-01-22T01:51:05.015Z,101279.59
2023-01-22T01:52:07.013Z,101281.31
2023-01-22T01:53:08.548Z,101281.53
2023-01-22T01:54:11.501Z,101275.78
2023-01-22T01:55:13.155Z,101273.03
2023-01-22T01:56:16.204Z,101277.50
2023-01-22T01:57:25.616Z,101272.81
2023-01-22T01:58:27.763Z,101273.69
2023-01-22T01:59:33.464Z,101288.38
2023-01-22T02:00:35.351Z,101280.94
2023-01-22T02:01:37.037Z,101276.25
2023-01-22T02:02:38.986Z,101279.03
2023-01-22T02:03:40.517Z,101275.19
2023-01-22T02:04:42.220Z,101275.19
2023-01-22T02:05:43.764Z,101273.69
2023-01-22T02:06:46.270Z,101275.41
2023-01-22T02:07:48.160Z,101277.50
2023-01-22T02:08:50.354Z,101271.59
2023-01-22T02:09:51.866Z,101270.53
2023-01-22T02:10:53.445Z,101265.84
2023-01-22T02:11:55.022Z,101266.69
2023-01-22T02:12:57.022Z,101269.06
2023-01-22T02:14:05.687Z,101263.53
2023-01-22T02:15:07.619Z,101266.94
2023-01-22T02:16:10.365Z,101266.94
2023-01-22T02:17:15.328Z,101261.59
2023-01-22T02:18:16.865Z,101275.44
2023-01-22T02:19:18.379Z,101266.50
2023-01-22T02:20:20.641Z,101279.25
2023-01-22T02:21:27.996Z,101270.09
2023-01-22T02:22:30.381Z,101265.44
2023-01-22T02:23:32.975Z,101272.03
2023-01-22T02:24:35.445Z,101276.69
2023-01-22T02:25:37.114Z,101271.81
2023-01-22T02:26:38.714Z,101267.13
2023-01-22T02:27:40.298Z,101267.13
2023-01-22T02:28:41.816Z,101266.28
2023-01-22T02:29:43.490Z,101263.31
2023-01-22T02:30:45.824Z,101266.94
2023-01-22T02:31:49.623Z,101264.38
2023-01-22T02:32:51.374Z,101249.00
2023-01-22T02:33:53.021Z,101266.50
2023-01-22T02:34:55.315Z,101269.06
2023-01-22T02:35:56.834Z,101268.00
2023-01-22T02:36:58.404Z,101269.91
2023-01-22T02:38:00.006Z,101265.63
2023-01-22T02:39:02.428Z,101268.19
2023-01-22T02:40:04.100Z,101265.22
2023-01-22T02:41:06.290Z,101266.94
2023-01-22T02:42:07.981Z,101269.50
2023-01-22T02:43:10.319Z,101270.53
2023-01-22T02:44:11.871Z,101269.50
2023-01-22T02:45:13.487Z,101275.00
2023-01-22T02:46:15.929Z,101267.56
2023-01-22T02:47:17.473Z,101269.28
2023-01-22T02:48:19.014Z,101269.09
2023-01-22T02:49:21.304Z,101272.72
2023-01-22T02:50:22.885Z,101276.34
2023-01-22T02:51:25.700Z,101271.88
2023-01-22T02:52:27.332Z,101264.44
2023-01-22T02:53:28.865Z,101266.13
2023-01-22T02:54:30.471Z,101274.41
2023-01-22T02:55:32.062Z,101266.97
2023-01-22T02:56:33.889Z,101275.47
2023-01-22T02:57:35.666Z,101268.25
2023-01-22T02:58:37.161Z,101270.34
2023-01-22T02:59:38.937Z,101268.63
2023-01-22T03:00:44.854Z,101263.09
2023-01-22T03:01:46.639Z,101260.13
2023-01-22T03:02:48.153Z,101263.09
2023-01-22T03:03:56.473Z,101267.78
2023-01-22T03:05:03.386Z,101260.13
2023-01-22T03:06:05.212Z,101265.50
2023-01-22T03:07:06.769Z,101267.41
2023-01-22T03:08:08.271Z,101259.28
2023-01-22T03:09:10.140Z,101263.56
2023-01-22T03:10:14.142Z,101266.97
2023-01-22T03:11:15.681Z,101261.25
2023-01-22T03:12:18.226Z,101260.19
2023-01-22T03:13:38.589Z,101264.88
2023-01-22T03:14:58.972Z,101259.13
2023-01-22T03:16:21.700Z,101263.59
2023-01-22T03:17:41.922Z,101266.16
2023-01-22T03:19:02.028Z,101260.63
2023-01-22T03:20:22.363Z,101261.69
2023-01-22T03:21:24.064Z,101252.53
2023-01-22T03:22:25.550Z,101252.53
2023-01-22T03:23:29.050Z,101253.38
2023-01-22T03:24:30.633Z,101255.94
2023-01-22T03:25:32.196Z,101255.09
2023-01-22T03:26:33.782Z,101253.19
2023-01-22T03:27:38.041Z,101263.19
2023-01-22T03:28:39.579Z,101253.19
2023-01-22T03:29:42.227Z,101257.00
2023-01-22T03:30:43.736Z,101254.25
2023-01-22T03:31:48.383Z,101252.31
2023-01-22T03:32:50.081Z,101253.19
2023-01-22T03:33:51.599Z,101259.34
2023-01-22T03:34:53.860Z,101256.78
2023-01-22T03:36:03.055Z,101258.06
2023-01-22T03:37:05.608Z,101250.84
2023-01-22T03:38:07.234Z,101255.31
2023-01-22T03:39:09.161Z,101256.34
2023-01-22T03:40:10.982Z,101254.44
2023-01-22T03:41:15.219Z,101256.16
2023-01-22T03:42:18.447Z,101258.91
2023-01-22T03:43:20.180Z,101254.25
2023-01-22T03:44:22.155Z,101257.84
2023-01-22T03:45:23.755Z,101258.91
2023-01-22T03:46:25.266Z,101261.47
2023-01-22T03:47:30.315Z,101257.66
2023-01-22T03:48:32.227Z,101262.97
2023-01-22T03:49:33.768Z,101261.09
2023-01-22T03:50:36.073Z,101264.03
2023-01-22T03:51:37.585Z,101264.88
2023-01-22T03:52:39.132Z,101257.66
2023-01-22T03:53:40.885Z,101258.31
2023-01-22T03:54:42.435Z,101255.56
2023-01-22T03:55:45.450Z,101259.34
2023-01-22T03:56:47.201Z,101260.19
2023-01-22T03:58:00.963Z,101250.03
2023-01-22T03:59:02.547Z,101263.84
2023-01-22T04:00:07.529Z,101261.09
2023-01-22T04:01:14.910Z,101266.63
2023-01-22T04:02:16.523Z,101254.69
2023-01-22T04:03:36.259Z,101262.78
2023-01-22T04:04:38.473Z,101264.50
2023-01-22T04:05:40.261Z,101252.97
2023-01-22T04:06:41.785Z,101258.50
2023-01-22T04:07:43.422Z,101272.16
2023-01-22T04:08:45.336Z,101264.50
2023-01-22T04:09:46.947Z,101258.97
2023-01-22T04:10:48.462Z,101254.06
2023-01-22T04:11:49.962Z,101264.06
2023-01-22T04:12:53.097Z,101260.25
2023-01-22T04:13:56.928Z,101267.47
2023-01-22T04:14:59.859Z,101259.19
2023-01-22T04:16:01.658Z,101271.31
2023-01-22T04:17:26.863Z,101264.94
2023-01-22T04:18:51.372Z,101269.59
2023-01-22T04:20:21.829Z,101271.31
2023-01-22T04:21:38.611Z,101268.75
2023-01-22T04:22:43.063Z,101270.66
2023-01-22T04:23:46.710Z,101269.59
2023-01-22T04:24:48.229Z,101264.06
2023-01-22T04:25:49.859Z,101275.97
2023-01-22T04:26:52.833Z,101269.59
2023-01-22T04:27:55.052Z,101266.84
2023-01-22T04:28:56.730Z,101274.28
2023-01-22T04:29:59.264Z,101270.47
2023-01-22T04:31:01.140Z,101250.84
2023-01-22T04:32:20.484Z,101273.22
2023-01-22T04:33:35.214Z,101265.78
2023-01-22T04:34:41.973Z,101272.16
2023-01-22T04:36:06.375Z,101266.84
2023-01-22T04:37:07.933Z,101275.13
2023-01-22T04:38:12.721Z,101269.59
2023-01-22T04:39:14.247Z,101271.31
2023-01-22T04:40:16.062Z,101264.72
2023-01-22T04:41:18.934Z,101266.41
2023-01-22T04:42:21.698Z,101273.66
2023-01-22T04:43:23.249Z,101267.06
2023-01-22T04:44:24.765Z,101275.16
2023-01-22T04:45:26.322Z,101271.53
2023-01-22T04:46:30.175Z,101273.22
2023-01-22T04:47:31.995Z,101269.44
2023-01-22T04:48:33.495Z,101273.91
2023-01-22T04:49:35.117Z,101272.38
2023-01-22T04:50:37.951Z,101266.41
2023-01-22T04:51:39.484Z,101259.84
2023-01-22T04:52:41.241Z,101268.78
2023-01-22T04:53:42.891Z,101267.72
2023-01-22T04:54:44.692Z,101270.47
2023-01-22T04:55:46.249Z,101263.25
2023-01-22T04:56:48.315Z,101274.97
2023-01-22T04:57:50.284Z,101272.22
2023-01-22T04:58:52.013Z,101267.53
2023-01-22T04:59:53.564Z,101270.94
2023-01-22T05:00:55.886Z,101265.41
2023-01-22T05:01:57.533Z,101254.72
2023-01-22T05:02:59.332Z,101260.72
2023-01-22T05:04:02.437Z,101270.94
2023-01-22T05:05:06.583Z,101264.56
2023-01-22T05:06:08.168Z,101267.97
2023-01-22T05:07:11.230Z,101271.78
2023-01-22T05:08:12.956Z,101270.72
2023-01-22T05:09:14.476Z,101270.72
2023-01-22T05:10:32.217Z,101281.16
2023-01-22T05:11:34.064Z,101269.22
2023-01-22T05:12:37.291Z,101270.09
2023-01-22T05:13:38.885Z,101272.63
2023-01-22T05:14:40.455Z,101277.31
2023-01-22T05:15:42.077Z,101273.69
2023-01-22T05:16:47.104Z,101278.38
2023-01-22T05:17:49.502Z,101272.00
2023-01-22T05:18:50.992Z,101273.91
2023-01-22T05:19:52.504Z,101276.00
2023-01-22T05:20:55.901Z,101277.75
2023-01-22T05:22:00.623Z,101278.59
2023-01-22T05:23:02.132Z,101281.16
2023-01-22T05:24:04.456Z,101284.75
2023-01-22T05:25:06.177Z,101285.63
2023-01-22T05:26:08.587Z,101288.38
2023-01-22T05:27:16.823Z,101287.53
2023-01-22T05:28:34.832Z,101292.19
2023-01-22T05:29:53.359Z,101286.69
2023-01-22T05:31:21.288Z,101287.53
2023-01-22T05:32:31.195Z,101282.00
2023-01-22T05:33:33.289Z,101267.91
2023-01-22T05:34:34.856Z,101290.50
2023-01-22T05:35:36.749Z,101297.72
2023-01-22T05:36:38.331Z,101297.72
2023-01-22T05:37:50.385Z,101293.06
2023-01-22T05:38:53.213Z,101288.78
2023-01-22T05:39:55.598Z,101287.06
2023-01-22T05:40:57.357Z,101298.53
2023-01-22T05:41:58.893Z,101291.09
2023-01-22T05:43:02.560Z,101293.66
2023-01-22T05:44:04.491Z,101291.75
2023-01-22T05:45:06.568Z,101287.06
2023-01-22T05:46:11.418Z,101290.03
2023-01-22T05:47:31.392Z,101296.41
2023-01-22T05:48:47.773Z,101299.19
2023-01-22T05:49:53.503Z,101296.41
2023-01-22T05:50:55.724Z,101288.78
2023-01-22T05:51:58.125Z,101297.72
2023-01-22T05:53:00.086Z,101296.69
2023-01-22T05:54:01.701Z,101296.69
2023-01-22T05:55:06.525Z,101304.53
2023-01-22T05:56:14.898Z,101290.72
2023-01-22T05:57:16.407Z,101293.47
2023-01-22T05:58:18.146Z,101292.59
2023-01-22T05:59:22.261Z,101290.88
2023-01-22T06:00:32.618Z,101274.91
2023-01-22T06:01:37.656Z,101296.41
2023-01-22T06:02:39.333Z,101299.84
2023-01-22T06:03:41.113Z,101288.78
2023-01-22T06:04:42.677Z,101297.09
2023-01-22T06:06:06.449Z,101300.72
2023-01-22T06:07:08.175Z,101300.72
2023-01-22T06:08:09.698Z,101295.19
2023-01-22T06:09:18.853Z,101297.72
2023-01-22T06:10:20.660Z,101296.03
2023-01-22T06:11:23.009Z,101294.97
2023-01-22T06:12:24.524Z,101298.59
2023-01-22T06:13:26.018Z,101307.72
2023-01-22T06:14:30.760Z,101307.53
2023-01-22T06:15:34.048Z,101306.50
2023-01-22T06:16:48.667Z,101302.88
2023-01-22T06:18:09.341Z,101302.88
2023-01-22T06:19:11.299Z,101308.41
2023-01-22T06:20:33.234Z,101300.13
2023-01-22T06:21:34.786Z,101302.88
2023-01-22T06:22:36.372Z,101299.44
2023-01-22T06:23:38.243Z,101304.97
2023-01-22T06:24:39.828Z,101302.22
2023-01-22T06:25:42.977Z,101306.66
2023-01-22T06:26:50.666Z,101301.13
2023-01-22T06:27:52.979Z,101301.13
2023-01-22T06:28:55.223Z,101294.97
2023-01-22T06:29:57.166Z,101304.13
2023-01-22T06:30:59.615Z,101303.25
2023-01-22T06:32:01.224Z,101293.25
2023-01-22T06:33:03.797Z,101301.56
2023-01-22T06:34:06.802Z,101295.34
2023-01-22T06:35:08.612Z,101307.31
2023-01-22T06:36:10.228Z,101301.94
2023-01-22T06:37:12.134Z,101302.63
2023-01-22T06:38:14.492Z,101296.03
2023-01-22T06:39:16.463Z,101299.84
2023-01-22T06:40:34.038Z,101300.25
2023-01-22T06:41:37.473Z,101300.25
2023-01-22T06:42:41.489Z,101300.25
2023-01-22T06:43:43.031Z,101304.72
2023-01-22T06:44:44.633Z,101307.47
2023-01-22T06:45:46.241Z,101301.09
2023-01-22T06:46:47.928Z,101306.19
2023-01-22T06:47:58.864Z,101308.53
2023-01-22T06:49:01.605Z,101309.59
2023-01-22T06:50:03.513Z,101304.47
2023-01-22T06:51:05.131Z,101309.16
2023-01-22T06:52:07.210Z,101308.94
2023-01-22T06:53:08.715Z,101303.41
2023-01-22T06:54:13.317Z,101297.91
2023-01-22T06:55:14.827Z,101301.31
2023-01-22T06:56:16.378Z,101311.31
2023-01-22T06:57:18.000Z,101317.69
2023-01-22T06:58:19.533Z,101321.13
2023-01-22T06:59:21.074Z,101316.44
2023-01-22T07:00:22.747Z,101322.81
2023-01-22T07:01:25.936Z,101319.00
2023-01-22T07:02:27.441Z,101325.38
2023-01-22T07:03:29.003Z,101325.38
2023-01-22T07:04:30.544Z,101326.25
2023-01-22T07:05:32.026Z,101336.22
2023-01-22T07:06:33.519Z,101344.34
2023-01-22T07:07:35.015Z,101337.94
2023-01-22T07:08:37.056Z,101340.72
2023-01-22T07:09:38.573Z,101345.22
2023-01-22T07:10:40.108Z,101334.16
2023-01-22T07:11:41.663Z,101343.28
2023-01-22T07:12:43.234Z,101349.69
2023-01-22T07:13:44.835Z,101348.81
2023-01-22T07:14:46.357Z,101353.28
2023-01-22T07:15:47.862Z,101346.06
2023-01-22T07:16:49.441Z,101351.13
2023-01-22T07:17:52.107Z,101347.88
2023-01-22T07:18:53.584Z,101349.63
2023-01-22T07:19:55.182Z,101350.28
2023-01-22T07:21:00.041Z,101351.97
2023-01-22T07:22:01.628Z,101347.13
2023-01-22T07:23:03.197Z,101358.81
2023-01-22T07:24:04.865Z,101352.22
2023-01-22T07:25:06.544Z,101353.94
2023-01-22T07:26:08.324Z,101349.25
2023-01-22T07:27:09.784Z,101359.09
2023-01-22T07:28:11.306Z,101364.63
2023-01-22T07:29:12.930Z,101363.56
2023-01-22T07:30:14.590Z,101358.88
2023-01-22T07:31:16.226Z,101362.50
2023-01-22T07:32:17.808Z,101354.00
2023-01-22T07:33:19.316Z,101358.66
2023-01-22T07:34:20.896Z,101360.38
2023-01-22T07:35:22.353Z,101360.38
2023-01-22T07:36:23.844Z,101359.53
2023-01-22T07:37:25.357Z,101358.66
2023-01-22T07:38:27.087Z,101355.91
2023-01-22T07:39:28.660Z,101360.78
2023-01-22T07:40:30.180Z,101363.56
2023-01-22T07:41:31.788Z,101359.94
2023-01-22T07:42:33.352Z,101366.31
2023-01-22T07:43:34.841Z,101356.97
2023-01-22T07:44:40.298Z,101362.50
2023-01-22T07:45:41.863Z,101365.06
2023-01-22T07:46:43.467Z,101359.94
2023-01-22T07:47:55.004Z,101372.72
2023-01-22T07:48:56.575Z,101370.78
2023-01-22T07:49:58.098Z,101368.88
2023-01-22T07:51:03.614Z,101373.56
2023-01-22T07:52:05.155Z,101370.59
2023-01-22T07:53:07.319Z,101371.44
2023-01-22T07:54:08.850Z,101373.13
2023-01-22T07:55:10.407Z,101378.66
2023-01-22T07:56:11.939Z,101378.88
2023-01-22T07:57:15.479Z,101373.56
2023-01-22T07:58:17.084Z,101379.94
2023-01-22T07:59:18.640Z,101384.63
2023-01-22T08:00:20.727Z,101383.56
2023-01-22T08:01:22.468Z,101384.63
2023-01-22T08:02:23.994Z,101382.91
2023-01-22T08:03:25.522Z,101395.69
2023-01-22T08:04:27.122Z,101383.78
2023-01-22T08:05:28.603Z,101386.75
2023-01-22T08:06:30.112Z,101388.44
2023-01-22T08:07:31.579Z,101382.72
2023-01-22T08:08:33.100Z,101389.09
2023-01-22T08:09:35.572Z,101393.56
2023-01-22T08:10:37.123Z,101384.63
2023-01-22T08:11:38.631Z,101389.50
2023-01-22T08:12:42.068Z,101390.53
2023-01-22T08:13:43.575Z,101395.88
2023-01-22T08:14:45.197Z,101394.84
2023-01-22T08:15:46.698Z,101388.44
2023-01-22T08:16:48.240Z,101400.56
2023-01-22T08:17:50.527Z,101395.69
2023-01-22T08:18:52.020Z,101407.59
2023-01-22T08:19:53.502Z,101397.38
2023-01-22T08:20:55.093Z,101403.78
2023-01-22T08:21:56.552Z,101403.13
2023-01-22T08:22:58.891Z,101408.44
2023-01-22T08:24:00.418Z,101405.47
2023-01-22T08:25:01.970Z,101403.56
2023-01-22T08:26:04.113Z,101404.41
2023-01-22T08:27:05.639Z,101411.88
2023-01-22T08:28:07.168Z,101409.09
2023-01-22T08:29:08.748Z,101402.50
2023-01-22T08:30:13.397Z,101406.97
2023-01-22T08:31:27.052Z,101410.38
2023-01-22T08:32:29.568Z,101406.56
2023-01-22T08:33:31.524Z,101411.88
2023-01-22T08:34:33.052Z,101414.47
2023-01-22T08:35:34.587Z,101409.81
2023-01-22T08:36:36.239Z,101416.38
2023-01-22T08:37:37.762Z,101417.63
2023-01-22T08:38:39.220Z,101413.16
2023-01-22T08:39:40.667Z,101419.94
2023-01-22T08:40:42.219Z,101421.25
2023-01-22T08:41:43.671Z,101428.31
2023-01-22T08:42:50.517Z,101421.72
2023-01-22T08:43:52.979Z,101420.66
2023-01-22T08:44:54.451Z,101431.31
2023-01-22T08:45:55.993Z,101416.63
2023-01-22T08:46:57.526Z,101424.72
2023-01-22T08:48:00.286Z,101423.44
2023-01-22T08:49:04.810Z,101425.16
2023-01-22T08:50:06.538Z,101423.22
2023-01-22T08:51:08.079Z,101424.94
2023-01-22T08:52:09.638Z,101422.84
2023-01-22T08:53:11.140Z,101421.78
2023-01-22T08:54:12.623Z,101421.16
2023-01-22T08:55:14.127Z,101423.91
2023-01-22T08:56:15.625Z,101431.16
2023-01-22T08:57:17.081Z,101425.63
2023-01-22T08:58:21.007Z,101423.91
2023-01-22T08:59:22.485Z,101428.38
2023-01-22T09:00:24.017Z,101443.06
2023-01-22T09:01:25.700Z,101429.22
2023-01-22T09:02:28.001Z,101432.84
2023-01-22T09:03:29.579Z,101433.91
2023-01-22T09:04:31.048Z,101433.25
2023-01-22T09:05:32.676Z,101441.53
2023-01-22T09:06:34.532Z,101440.25
2023-01-22T09:07:36.085Z,101440.03
2023-01-22T09:08:37.594Z,101436.22
2023-01-22T09:09:39.040Z,101444.31
2023-01-22T09:10:40.580Z,101432.22
2023-01-22T09:11:42.179Z,101434.78
2023-01-22T09:12:43.700Z,101436.25
2023-01-22T09:13:45.362Z,101437.75
2023-01-22T09:14:47.134Z,101435.63
2023-01-22T09:15:48.595Z,101440.97
2023-01-22T09:16:50.124Z,101437.13
2023-01-22T09:17:51.673Z,101442.69
2023-01-22T09:18:53.441Z,101439.91
2023-01-22T09:19:54.959Z,101438.84
2023-01-22T09:20:58.172Z,101442.50
2023-01-22T09:22:06.189Z,101448.69
2023-01-22T09:23:07.860Z,101443.78
2023-01-22T09:24:09.466Z,101450.81
2023-01-22T09:25:10.951Z,101448.69
2023-01-22T09:26:12.455Z,101454.22
2023-01-22T09:27:13.979Z,101453.38
2023-01-22T09:28:15.429Z,101447.00
2023-01-22T09:29:16.977Z,101448.69
2023-01-22T09:30:18.959Z,101448.47
2023-01-22T09:31:20.633Z,101451.03
2023-01-22T09:32:22.159Z,101452.56
2023-01-22T09:33:23.587Z,101444.06
2023-01-22T09:34:25.063Z,101459.81
2023-01-22T09:35:27.391Z,101454.88
2023-01-22T09:36:28.852Z,101455.72
2023-01-22T09:37:30.319Z,101449.53
2023-01-22T09:38:31.859Z,101453.38
2023-01-22T09:39:33.544Z,101452.53
2023-01-22T09:40:40.969Z,101452.53
2023-01-22T09:41:49.502Z,101458.91
2023-01-22T09:42:50.967Z,101451.66
2023-01-22T09:43:52.505Z,101456.78
2023-01-22T09:44:55.820Z,101459.75
2023-01-22T09:45:58.178Z,101454.22
2023-01-22T09:47:25.601Z,101449.53
2023-01-22T09:48:29.398Z,101447.44
2023-01-22T09:49:37.510Z,101453.81
2023-01-22T09:50:44.485Z,101455.94
2023-01-22T09:51:52.286Z,101454.66
2023-01-22T09:52:54.461Z,101459.34
2023-01-22T09:53:56.686Z,101455.09
2023-01-22T09:54:58.176Z,101448.69
2023-01-22T09:55:59.723Z,101458.06
2023-01-22T09:57:02.239Z,101457.19
2023-01-22T09:58:05.618Z,101463.59
2023-01-22T09:59:07.512Z,101458.91
2023-01-22T10:00:14.548Z,101457.00
2023-01-22T10:01:16.061Z,101464.88
2023-01-22T10:02:24.504Z,101458.97
2023-01-22T10:03:32.660Z,101461.53
2023-01-22T10:04:37.917Z,101448.69
2023-01-22T10:05:42.894Z,101463.22
2023-01-22T10:06:45.567Z,101465.34
2023-01-22T10:07:48.327Z,101460.25
2023-01-22T10:08:52.816Z,101467.94
2023-01-22T10:09:55.877Z,101464.50
2023-01-22T10:10:57.943Z,101460.69
2023-01-22T10:12:02.265Z,101465.38
2023-01-22T10:13:15.561Z,101467.72
2023-01-22T10:14:17.455Z,101471.53
2023-01-22T10:15:18.931Z,101466.00
2023-01-22T10:16:20.586Z,101474.31
2023-01-22T10:17:23.064Z,101473.25
2023-01-22T10:18:27.250Z,101472.00
2023-01-22T10:19:48.976Z,101470.75
2023-01-22T10:20:50.476Z,101478.63
2023-01-22T10:21:57.675Z,101475.16
2023-01-22T10:23:02.416Z,101468.13
2023-01-22T10:24:03.894Z,101473.03
2023-01-22T10:25:05.588Z,101476.84
2023-01-22T10:26:16.983Z,101471.31
2023-01-22T10:27:34.529Z,101481.97
2023-01-22T10:28:36.068Z,101473.47
2023-01-22T10:29:39.025Z,101477.75
2023-01-22T10:30:47.180Z,101480.31
2023-01-22T10:31:50.816Z,101475.63
2023-01-22T10:33:02.200Z,101484.16
2023-01-22T10:34:04.727Z,101475.63
2023-01-22T10:35:11.996Z,101475.00
2023-01-22T10:36:13.841Z,101472.22
2023-01-22T10:37:16.324Z,101453.44
2023-01-22T10:38:31.030Z,101475.41
2023-01-22T10:39:42.212Z,101463.72
2023-01-22T10:40:43.663Z,101465.44
2023-01-22T10:41:45.651Z,101465.44
2023-01-22T10:42:48.126Z,101468.84
2023-01-22T10:43:49.609Z,101467.81
2023-01-22T10:44:54.408Z,101465.03
2023-01-22T10:46:02.056Z,101469.50
2023-01-22T10:47:10.443Z,101472.66
2023-01-22T10:48:15.484Z,101465.03
2023-01-22T10:49:19.981Z,101472.28
2023-01-22T10:50:21.775Z,101467.59
2023-01-22T10:51:27.627Z,101472.72
2023-01-22T10:52:36.295Z,101464.84
2023-01-22T10:53:38.354Z,101474.00
2023-01-22T10:54:41.636Z,101465.47
2023-01-22T10:55:43.384Z,101471.88
2023-01-22T10:56:45.093Z,101462.31
2023-01-22T10:57:48.549Z,101464.88
2023-01-22T10:58:50.013Z,101461.91
2023-01-22T11:00:00.295Z,101473.63
2023-01-22T11:01:03.639Z,101459.53
2023-01-22T11:02:12.435Z,101466.38
2023-01-22T11:03:23.851Z,101473.44
2023-01-22T11:04:26.825Z,101464.06
2023-01-22T11:05:32.496Z,101453.19
2023-01-22T11:06:36.927Z,101462.53
2023-01-22T11:07:38.408Z,101467.91
2023-01-22T11:08:42.253Z,101469.81
2023-01-22T11:09:46.067Z,101463.81
2023-01-22T11:11:07.948Z,101471.06
2023-01-22T11:12:15.166Z,101471.72
2023-01-22T11:13:19.514Z,101460.44
2023-01-22T11:14:26.252Z,101467.47
2023-01-22T11:15:33.243Z,101464.50
2023-01-22T11:16:35.186Z,101464.28
2023-01-22T11:17:40.760Z,101466.84
2023-01-22T11:18:47.883Z,101464.28
2023-01-22T11:19:58.713Z,101470.66
2023-01-22T11:21:00.760Z,101468.13
2023-01-22T11:22:02.220Z,101474.50
2023-01-22T11:23:11.520Z,101475.38
2023-01-22T11:24:30.953Z,101461.28
2023-01-22T11:25:36.280Z,101475.56
2023-01-22T11:26:37.768Z,101463.84
2023-01-22T11:27:50.369Z,101478.97
2023-01-22T11:28:51.807Z,101474.09
2023-01-22T11:29:59.110Z,101474.50
2023-01-22T11:31:12.394Z,101476.44
2023-01-22T11:32:34.844Z,101463.22
2023-01-22T11:33:39.296Z,101478.56
2023-01-22T11:34:53.303Z,101466.41
2023-01-22T11:35:57.649Z,101466.63
2023-01-22T11:37:00.615Z,101465.38
2023-01-22T11:38:02.067Z,101470.72
2023-01-22T11:39:09.486Z,101474.97
2023-01-22T11:40:17.119Z,101467.28
2023-01-22T11:41:27.308Z,101467.09
2023-01-22T11:42:35.974Z,101463.03
2023-01-22T11:43:49.983Z,101467.31
2023-01-22T11:44:55.866Z,101470.09
2023-01-22T11:46:24.013Z,101459.00
2023-01-22T11:47:37.507Z,101460.72
2023-01-22T11:48:55.706Z,101469.66
2023-01-22T11:50:03.880Z,101463.69
2023-01-22T11:51:05.351Z,101466.47
2023-01-22T11:52:20.786Z,101468.19
2023-01-22T11:53:28.172Z,101461.34
2023-01-22T11:54:35.801Z,101466.25
2023-01-22T11:55:55.821Z,101461.56
2023-01-22T11:56:57.333Z,101456.03
2023-01-22T11:58:06.729Z,101458.78
2023-01-22T11:59:14.116Z,101460.28
2023-01-22T12:00:24.899Z,101459.03
2023-01-22T12:01:29.767Z,101450.91
2023-01-22T12:02:34.178Z,101460.06
2023-01-22T12:03:38.572Z,101451.97
2023-01-22T12:04:47.695Z,101453.66
2023-01-22T12:05:56.760Z,101448.97
2023-01-22T12:07:16.528Z,101446.22
2023-01-22T12:08:39.515Z,101450.69
2023-01-22T12:09:40.936Z,101451.13